createdAt,value
2022-10-12T00:01:03.434Z,13.19
2022-10-12T00:03:05.094Z,13.23
2022-10-12T00:05:06.965Z,13.21
2022-10-12T00:07:19.117Z,13.21
2022-10-12T00:09:20.818Z,13.19
2022-10-12T00:11:28.684Z,13.22
2022-10-12T00:13:30.470Z,13.15
2022-10-12T00:15:32.110Z,13.17
2022-10-12T00:17:33.752Z,13.22
2022-10-12T00:19:35.421Z,13.20
2022-10-12T00:21:39.147Z,13.17
2022-10-12T00:23:41.886Z,13.27
2022-10-12T00:25:43.618Z,13.26
2022-10-12T00:27:46.484Z,13.13
2022-10-12T00:29:48.685Z,13.07
2022-10-12T00:31:50.405Z,13.05
2022-10-12T00:33:52.645Z,13.03
2022-10-12T00:35:55.173Z,12.96
2022-10-12T00:37:57.140Z,12.91
2022-10-12T00:39:58.856Z,12.89
2022-10-12T00:42:00.551Z,12.81
2022-10-12T00:44:02.472Z,12.82
2022-10-12T00:46:07.129Z,12.79
2022-10-12T00:48:10.968Z,12.78
2022-10-12T00:50:31.099Z,12.80
2022-10-12T00:52:40.963Z,12.75
2022-10-12T00:54:47.130Z,12.75
2022-10-12T00:56:53.729Z,12.70
2022-10-12T00:58:58.454Z,12.65
2022-10-12T01:01:07.509Z,12.65
2022-10-12T01:03:13.327Z,12.67
2022-10-12T01:05:15.369Z,12.63
2022-10-12T01:07:20.084Z,12.54
2022-10-12T01:09:22.123Z,12.50
2022-10-12T01:11:23.914Z,12.45
2022-10-12T01:13:25.860Z,12.38
2022-10-12T01:16:05.468Z,12.42
2022-10-12T01:18:35.766Z,12.41
2022-10-12T01:20:47.535Z,12.41
2022-10-12T01:23:18.766Z,12.40
2022-10-12T01:25:23.076Z,12.38
2022-10-12T01:27:33.901Z,12.42
2022-10-12T01:29:38.473Z,12.43
2022-10-12T01:32:02.166Z,12.48
2022-10-12T01:34:06.687Z,12.47
2022-10-12T01:36:39.434Z,12.50
2022-10-12T01:39:00.504Z,12.52
2022-10-12T01:41:09.216Z,12.54
2022-10-12T01:43:12.262Z,12.57
2022-10-12T01:45:17.339Z,12.59
2022-10-12T01:47:19.166Z,12.57
2022-10-12T01:49:27.700Z,12.55
2022-10-12T01:51:35.324Z,12.55
2022-10-12T01:54:00.929Z,12.56
2022-10-12T01:56:20.926Z,12.54
2022-10-12T01:58:54.394Z,12.51
2022-10-12T02:01:04.024Z,12.51
2022-10-12T02:03:22.401Z,12.55
2022-10-12T02:05:43.498Z,12.53
2022-10-12T02:07:52.527Z,12.52
2022-10-12T02:10:00.802Z,12.53
2022-10-12T02:12:08.487Z,12.51
2022-10-12T02:14:21.502Z,12.54
2022-10-12T02:16:29.331Z,12.57
2022-10-12T02:18:33.463Z,12.55
2022-10-12T02:20:39.285Z,12.57
2022-10-12T02:22:45.556Z,12.57
2022-10-12T02:24:52.538Z,12.57
2022-10-12T02:26:56.875Z,12.55
2022-10-12T02:29:02.184Z,12.54
2022-10-12T02:31:37.804Z,12.56
2022-10-12T02:33:53.609Z,12.56
2022-10-12T02:36:12.424Z,12.56
2022-10-12T02:38:25.164Z,12.59
2022-10-12T02:40:36.125Z,12.51
2022-10-12T02:43:08.931Z,12.52
2022-10-12T02:45:09.295Z,12.45
2022-10-12T02:47:12.883Z,12.46
2022-10-12T02:49:19.279Z,12.45
2022-10-12T02:51:22.538Z,12.40
2022-10-12T02:53:29.791Z,12.41
2022-10-12T02:55:37.750Z,12.43
2022-10-12T02:57:40.202Z,12.42
2022-10-12T02:59:42.489Z,12.43
2022-10-12T03:01:52.937Z,12.42
2022-10-12T03:03:56.676Z,12.39
2022-10-12T03:05:58.517Z,12.29
2022-10-12T03:08:01.283Z,12.33
2022-10-12T03:10:04.693Z,12.31
2022-10-12T03:12:07.214Z,12.29
2022-10-12T03:14:15.602Z,12.33
2022-10-12T03:16:17.602Z,12.34
2022-10-12T03:18:19.675Z,12.30
2022-10-12T03:20:32.416Z,12.31
2022-10-12T03:22:36.070Z,12.31
2022-10-12T03:24:38.740Z,12.34
2022-10-12T03:26:41.539Z,12.38
2022-10-12T03:28:48.043Z,12.34
2022-10-12T03:30:51.003Z,12.41
2022-10-12T03:32:54.269Z,12.43
2022-10-12T03:34:59.332Z,12.49
2022-10-12T03:37:01.226Z,12.47
2022-10-12T03:39:10.047Z,12.52
2022-10-12T03:41:12.506Z,12.53
2022-10-12T03:43:14.878Z,12.52
2022-10-12T03:45:18.394Z,12.49
2022-10-12T03:47:21.641Z,12.51
2022-10-12T03:49:25.914Z,12.48
2022-10-12T03:51:27.639Z,12.42
2022-10-12T03:53:29.437Z,12.49
2022-10-12T03:55:31.474Z,12.50
2022-10-12T03:57:33.274Z,12.52
2022-10-12T03:59:35.594Z,12.49
2022-10-12T04:01:37.664Z,12.44
2022-10-12T04:03:39.310Z,12.42
2022-10-12T04:05:41.026Z,12.38
2022-10-12T04:07:42.652Z,12.30
2022-10-12T04:09:44.394Z,12.31
2022-10-12T04:11:46.012Z,12.35
2022-10-12T04:13:47.697Z,12.38
2022-10-12T04:15:49.326Z,12.39
2022-10-12T04:17:51.008Z,12.38
2022-10-12T04:19:52.616Z,12.35
2022-10-12T04:21:54.374Z,12.36
2022-10-12T04:23:56.115Z,12.35
2022-10-12T04:25:57.724Z,12.39
2022-10-12T04:27:59.305Z,12.37
2022-10-12T04:30:00.932Z,12.35
2022-10-12T04:32:02.540Z,12.41
2022-10-12T04:34:04.205Z,12.36
2022-10-12T04:36:06.090Z,12.39
2022-10-12T04:38:07.705Z,12.48
2022-10-12T04:40:10.302Z,12.46
2022-10-12T04:42:16.725Z,12.48
2022-10-12T04:44:18.779Z,12.55
2022-10-12T04:46:20.546Z,12.42
2022-10-12T04:48:23.279Z,12.40
2022-10-12T04:50:29.673Z,12.36
2022-10-12T04:52:31.852Z,12.36
2022-10-12T04:54:33.575Z,12.47
2022-10-12T04:56:35.266Z,12.39
2022-10-12T04:58:36.942Z,12.34
2022-10-12T05:00:38.547Z,12.38
2022-10-12T05:02:40.500Z,12.46
2022-10-12T05:04:42.128Z,12.39
2022-10-12T05:06:43.721Z,12.41
2022-10-12T05:08:45.378Z,12.42
2022-10-12T05:10:47.298Z,12.40
2022-10-12T05:12:48.914Z,12.50
2022-10-12T05:14:50.499Z,12.42
2022-10-12T05:16:52.143Z,12.42
2022-10-12T05:18:53.835Z,12.48
2022-10-12T05:20:57.180Z,12.36
2022-10-12T05:22:59.262Z,12.47
2022-10-12T05:25:00.866Z,12.52
2022-10-12T05:27:03.214Z,12.48
2022-10-12T05:29:09.033Z,12.51
2022-10-12T05:31:10.970Z,12.45
2022-10-12T05:33:12.594Z,12.49
2022-10-12T05:35:14.275Z,12.51
2022-10-12T05:37:16.092Z,12.47
2022-10-12T05:39:17.683Z,12.50
2022-10-12T05:41:19.411Z,12.52
2022-10-12T05:43:21.454Z,12.53
2022-10-12T05:45:23.143Z,12.52
2022-10-12T05:47:24.742Z,12.47
2022-10-12T05:49:26.346Z,12.51
2022-10-12T05:51:29.007Z,12.52
2022-10-12T05:53:30.909Z,12.55
2022-10-12T05:55:32.646Z,12.54
2022-10-12T05:57:34.259Z,12.54
2022-10-12T05:59:35.897Z,12.55
2022-10-12T06:01:37.669Z,12.43
2022-10-12T06:03:39.859Z,12.42
2022-10-12T06:05:42.411Z,12.49
2022-10-12T06:07:44.090Z,12.49
2022-10-12T06:09:47.632Z,12.50
2022-10-12T06:11:49.284Z,12.47
2022-10-12T06:13:50.905Z,12.43
2022-10-12T06:15:52.800Z,12.47
2022-10-12T06:17:54.508Z,12.56
2022-10-12T06:19:56.164Z,12.47
2022-10-12T06:21:57.774Z,12.51
2022-10-12T06:23:59.428Z,12.59
2022-10-12T06:26:01.551Z,12.60
2022-10-12T06:28:03.203Z,12.63
2022-10-12T06:30:05.553Z,12.72
2022-10-12T06:32:07.444Z,12.70
2022-10-12T06:34:09.111Z,12.73
2022-10-12T06:36:10.826Z,12.77
2022-10-12T06:38:12.420Z,12.73
2022-10-12T06:40:14.138Z,12.79
2022-10-12T06:42:15.749Z,12.82
2022-10-12T06:44:17.481Z,12.81
2022-10-12T06:46:19.169Z,12.88
2022-10-12T06:48:20.945Z,12.81
2022-10-12T06:50:22.661Z,12.87
2022-10-12T06:52:24.317Z,12.94
2022-10-12T06:54:26.008Z,12.83
2022-10-12T06:56:27.674Z,12.95
2022-10-12T06:58:29.331Z,12.98
2022-10-12T07:00:31.039Z,13.00
2022-10-12T07:02:33.305Z,13.01
2022-10-12T07:04:34.934Z,13.03
2022-10-12T07:06:36.615Z,13.11
2022-10-12T07:08:39.120Z,13.12
2022-10-12T07:10:40.753Z,13.11
2022-10-12T07:12:42.394Z,13.13
2022-10-12T07:14:44.071Z,13.17
2022-10-12T07:16:45.829Z,13.18
2022-10-12T07:18:47.432Z,13.19
2022-10-12T07:20:50.040Z,13.29
2022-10-12T07:22:53.144Z,13.33
2022-10-12T07:24:54.769Z,13.31
2022-10-12T07:26:56.550Z,13.33
2022-10-12T07:29:00.225Z,13.35
2022-10-12T07:31:06.972Z,13.36
2022-10-12T07:33:09.102Z,13.38
2022-10-12T07:35:10.730Z,13.37
2022-10-12T07:37:13.387Z,13.37
2022-10-12T07:39:15.141Z,13.47
2022-10-12T07:41:17.086Z,13.56
2022-10-12T07:43:18.707Z,13.52
2022-10-12T07:45:20.422Z,13.58
2022-10-12T07:47:22.062Z,13.64
2022-10-12T07:49:23.687Z,13.62
2022-10-12T07:51:25.275Z,13.69
2022-10-12T07:53:26.865Z,13.68
2022-10-12T07:55:30.532Z,13.63
2022-10-12T07:57:32.114Z,13.67
2022-10-12T07:59:33.762Z,13.75
2022-10-12T08:01:35.505Z,13.73
2022-10-12T08:03:37.363Z,13.76
2022-10-12T08:05:38.983Z,13.71
2022-10-12T08:07:41.151Z,13.68
2022-10-12T08:09:43.288Z,13.70
2022-10-12T08:11:44.926Z,13.77
2022-10-12T08:13:47.224Z,13.75
2022-10-12T08:15:50.289Z,13.78
2022-10-12T08:17:51.964Z,13.76
2022-10-12T08:19:53.579Z,13.88
2022-10-12T08:21:55.187Z,13.94
2022-10-12T08:23:56.833Z,14.00
2022-10-12T08:25:58.592Z,14.04
2022-10-12T08:28:00.158Z,14.04
2022-10-12T08:30:02.212Z,14.11
2022-10-12T08:32:04.027Z,14.04
2022-10-12T08:34:06.315Z,14.11
2022-10-12T08:36:09.570Z,14.23
2022-10-12T08:38:14.843Z,14.23
2022-10-12T08:40:34.877Z,14.40
2022-10-12T08:42:56.830Z,14.41
2022-10-12T08:45:32.453Z,14.49
2022-10-12T08:47:45.495Z,14.55
2022-10-12T08:49:50.123Z,14.57
2022-10-12T08:52:04.468Z,14.63
2022-10-12T08:54:11.057Z,14.66
2022-10-12T08:56:17.272Z,14.73
2022-10-12T08:58:22.594Z,14.81
2022-10-12T09:00:24.964Z,14.85
2022-10-12T09:02:48.383Z,14.97
2022-10-12T09:04:56.965Z,15.14
2022-10-12T09:07:20.258Z,15.21
2022-10-12T09:09:54.386Z,15.28
2022-10-12T09:13:00.452Z,15.32
2022-10-12T09:15:09.709Z,15.31
2022-10-12T09:17:41.284Z,15.47
2022-10-12T09:19:43.037Z,15.46
2022-10-12T09:21:47.746Z,15.60
2022-10-12T09:23:49.936Z,15.65
2022-10-12T09:25:57.249Z,15.78
2022-10-12T09:28:13.963Z,15.86
2022-10-12T09:30:20.046Z,15.86
2022-10-12T09:32:52.629Z,15.86
2022-10-12T09:34:55.447Z,16.03
2022-10-12T09:36:57.102Z,16.03
2022-10-12T09:39:08.996Z,15.98
2022-10-12T09:41:27.527Z,16.10
2022-10-12T09:43:29.342Z,16.14
2022-10-12T09:45:34.041Z,16.15
2022-10-12T09:47:35.687Z,16.21
2022-10-12T09:49:44.033Z,16.22
2022-10-12T09:51:46.318Z,16.32
2022-10-12T09:53:51.254Z,16.27
2022-10-12T09:56:05.129Z,16.28
2022-10-12T09:58:19.469Z,16.33
2022-10-12T10:00:52.626Z,16.47
2022-10-12T10:02:55.575Z,16.39
2022-10-12T10:05:23.734Z,16.52
2022-10-12T10:07:28.466Z,16.53
2022-10-12T10:09:35.499Z,16.57
2022-10-12T10:11:37.160Z,16.66
2022-10-12T10:13:39.089Z,16.71
2022-10-12T10:15:43.586Z,16.67
2022-10-12T10:17:53.578Z,16.66
2022-10-12T10:19:57.155Z,16.79
2022-10-12T10:22:06.791Z,16.83
2022-10-12T10:24:27.781Z,16.82
2022-10-12T10:26:50.490Z,16.73
2022-10-12T10:29:16.730Z,16.72
2022-10-12T10:31:22.492Z,16.83
2022-10-12T10:33:24.295Z,16.80
2022-10-12T10:35:26.084Z,16.74
2022-10-12T10:37:52.034Z,16.71
2022-10-12T10:39:57.351Z,16.76
2022-10-12T10:42:16.574Z,16.85
2022-10-12T10:44:24.297Z,16.85
2022-10-12T10:46:31.022Z,16.98
2022-10-12T10:48:51.219Z,16.97
2022-10-12T10:51:05.215Z,17.00
2022-10-12T10:53:23.947Z,16.93
2022-10-12T10:55:40.965Z,17.06
2022-10-12T10:57:55.794Z,17.18
2022-10-12T11:00:36.867Z,17.24
2022-10-12T11:02:38.697Z,17.19
2022-10-12T11:04:45.411Z,17.31
2022-10-12T11:06:54.814Z,17.34
2022-10-12T11:09:13.198Z,17.32
2022-10-12T11:11:24.210Z,17.38
2022-10-12T11:13:36.979Z,17.45
2022-10-12T11:15:50.907Z,17.46
2022-10-12T11:18:03.411Z,17.46
2022-10-12T11:20:33.466Z,17.55
2022-10-12T11:22:50.648Z,17.75
2022-10-12T11:25:18.437Z,17.76
2022-10-12T11:27:36.470Z,17.92
2022-10-12T11:29:38.706Z,18.07
2022-10-12T11:31:57.260Z,18.01
2022-10-12T11:34:03.499Z,18.07
2022-10-12T11:36:12.254Z,18.15
2022-10-12T11:38:30.642Z,18.27
2022-10-12T11:41:09.150Z,18.28
2022-10-12T11:43:06.883Z,18.32
2022-10-12T11:45:29.770Z,18.34
2022-10-12T11:47:38.324Z,18.42
2022-10-12T11:50:15.539Z,18.42
2022-10-12T11:52:18.589Z,18.37
2022-10-12T11:54:47.435Z,18.60
2022-10-12T11:56:54.944Z,18.66
2022-10-12T11:59:18.529Z,18.67
2022-10-12T12:01:47.228Z,18.58
2022-10-12T12:04:40.123Z,18.70
2022-10-12T12:06:45.813Z,18.65
2022-10-12T12:08:47.400Z,18.66
2022-10-12T12:11:05.745Z,18.63
2022-10-12T12:13:11.794Z,18.46
2022-10-12T12:15:22.123Z,18.52
2022-10-12T12:17:31.560Z,18.48
2022-10-12T12:19:42.432Z,18.34
2022-10-12T12:22:29.025Z,18.32
2022-10-12T12:24:30.753Z,18.30
2022-10-12T12:26:32.507Z,18.28
2022-10-12T12:28:35.059Z,18.24
2022-10-12T12:30:40.711Z,18.25
2022-10-12T12:32:50.721Z,18.17
2022-10-12T12:35:00.640Z,18.13
2022-10-12T12:37:12.427Z,18.07
2022-10-12T12:39:26.499Z,18.12
2022-10-12T12:41:54.013Z,18.06
2022-10-12T12:44:01.388Z,18.14
2022-10-12T12:46:10.071Z,18.24
2022-10-12T12:48:40.042Z,18.03
2022-10-12T12:50:41.792Z,18.12
2022-10-12T12:52:43.599Z,18.18
2022-10-12T12:55:06.872Z,18.16
2022-10-12T12:57:29.568Z,18.32
2022-10-12T13:00:09.946Z,18.31
2022-10-12T13:02:43.320Z,18.31
2022-10-12T13:05:01.977Z,18.45
2022-10-12T13:07:32.737Z,18.52
2022-10-12T13:09:53.574Z,18.68
2022-10-12T13:12:25.295Z,18.64
2022-10-12T13:14:55.437Z,18.55
2022-10-12T13:17:34.255Z,18.55
2022-10-12T13:19:42.569Z,18.59
2022-10-12T13:21:47.848Z,18.52
2022-10-12T13:23:55.039Z,18.55
2022-10-12T13:26:02.465Z,18.58
2022-10-12T13:28:10.655Z,18.37
2022-10-12T13:30:15.727Z,18.43
2022-10-12T13:32:38.299Z,18.46
2022-10-12T13:34:43.971Z,18.37
2022-10-12T13:37:10.785Z,18.40
2022-10-12T13:39:19.468Z,18.42
2022-10-12T13:41:21.327Z,18.26
2022-10-12T13:43:22.934Z,18.25
2022-10-12T13:45:24.758Z,18.21
2022-10-12T13:47:29.896Z,18.27
2022-10-12T13:49:35.171Z,18.36
2022-10-12T13:51:36.816Z,18.35
2022-10-12T13:53:39.595Z,18.42
2022-10-12T13:55:41.311Z,18.37
2022-10-12T13:57:50.603Z,18.48
2022-10-12T13:59:58.645Z,18.55
2022-10-12T14:02:02.022Z,18.34
2022-10-12T14:04:05.736Z,18.44
2022-10-12T14:06:26.247Z,18.52
2022-10-12T14:08:29.519Z,18.55
2022-10-12T14:10:38.654Z,18.64
2022-10-12T14:12:40.779Z,18.58
2022-10-12T14:14:45.550Z,18.69
2022-10-12T14:16:48.026Z,18.78
2022-10-12T14:18:50.935Z,18.75
2022-10-12T14:21:15.077Z,18.81
2022-10-12T14:23:23.101Z,18.77
2022-10-12T14:25:28.314Z,18.75
2022-10-12T14:27:39.899Z,18.79
2022-10-12T14:29:46.919Z,18.79
2022-10-12T14:31:52.319Z,18.67
2022-10-12T14:33:54.201Z,18.62
2022-10-12T14:36:15.558Z,18.67
2022-10-12T14:38:43.845Z,18.64
2022-10-12T14:40:45.590Z,18.48
2022-10-12T14:43:00.626Z,18.44
2022-10-12T14:45:06.018Z,18.44
2022-10-12T14:47:21.383Z,18.43
2022-10-12T14:49:32.628Z,18.25
2022-10-12T14:51:34.272Z,18.40
2022-10-12T14:53:36.087Z,18.38
2022-10-12T14:55:37.992Z,18.39
2022-10-12T14:57:39.686Z,18.48
2022-10-12T14:59:41.384Z,18.36
2022-10-12T15:01:47.459Z,18.36
2022-10-12T15:03:52.505Z,18.37
2022-10-12T15:05:54.118Z,18.34
2022-10-12T15:07:55.830Z,18.39
2022-10-12T15:09:58.064Z,18.36
2022-10-12T15:11:59.684Z,18.44
2022-10-12T15:14:01.370Z,18.49
2022-10-12T15:16:03.317Z,18.46
2022-10-12T15:18:05.349Z,18.45
2022-10-12T15:20:07.355Z,18.44
2022-10-12T15:22:16.426Z,18.48
2022-10-12T15:24:20.836Z,18.52
2022-10-12T15:26:22.613Z,18.36
2022-10-12T15:28:24.466Z,18.45
2022-10-12T15:30:31.112Z,18.46
2022-10-12T15:32:32.731Z,18.49
2022-10-12T15:34:34.376Z,18.52
2022-10-12T15:36:36.033Z,18.51
2022-10-12T15:38:37.784Z,18.54
2022-10-12T15:40:39.947Z,18.61
2022-10-12T15:42:42.711Z,18.55
2022-10-12T15:44:44.347Z,18.48
2022-10-12T15:46:51.071Z,18.52
2022-10-12T15:48:52.817Z,18.50
2022-10-12T15:50:54.951Z,18.52
2022-10-12T15:52:57.239Z,18.57
2022-10-12T15:54:58.918Z,18.52
2022-10-12T15:57:00.582Z,18.58
2022-10-12T15:59:08.751Z,18.59
2022-10-12T16:01:19.409Z,18.57
2022-10-12T16:03:25.512Z,18.59
2022-10-12T16:05:33.803Z,18.56
2022-10-12T16:07:35.427Z,18.49
2022-10-12T16:09:37.254Z,18.50
2022-10-12T16:11:38.977Z,18.48
2022-10-12T16:13:46.841Z,18.42
2022-10-12T16:15:51.553Z,18.45
2022-10-12T16:17:53.227Z,18.44
2022-10-12T16:19:54.999Z,18.46
2022-10-12T16:21:56.776Z,18.37
2022-10-12T16:23:58.448Z,18.45
2022-10-12T16:26:03.195Z,18.46
2022-10-12T16:28:04.960Z,18.48
2022-10-12T16:30:08.123Z,18.48
2022-10-12T16:32:09.751Z,18.47
2022-10-12T16:34:11.388Z,18.42
2022-10-12T16:36:15.405Z,18.44
2022-10-12T16:38:19.902Z,18.43
2022-10-12T16:40:21.562Z,18.36
2022-10-12T16:42:23.663Z,18.40
2022-10-12T16:44:25.386Z,18.37
2022-10-12T16:46:26.997Z,18.33
2022-10-12T16:48:28.679Z,18.24
2022-10-12T16:50:30.353Z,18.37
2022-10-12T16:52:32.382Z,18.35
2022-10-12T16:54:34.153Z,18.35
2022-10-12T16:56:39.234Z,18.37
2022-10-12T16:58:41.569Z,18.25
2022-10-12T17:00:43.570Z,18.28
2022-10-12T17:02:46.486Z,18.21
2022-10-12T17:04:48.106Z,18.25
2022-10-12T17:06:50.037Z,18.18
2022-10-12T17:08:51.681Z,18.17
2022-10-12T17:10:53.380Z,18.15
2022-10-12T17:12:55.068Z,18.11
2022-10-12T17:14:56.658Z,18.12
2022-10-12T17:16:58.262Z,18.12
2022-10-12T17:19:08.922Z,18.13
2022-10-12T17:21:10.810Z,18.04
2022-10-12T17:23:12.425Z,17.98
2022-10-12T17:25:14.066Z,17.97
2022-10-12T17:27:16.913Z,17.97
2022-10-12T17:29:19.716Z,17.82
2022-10-12T17:31:21.349Z,17.98
2022-10-12T17:33:23.071Z,17.90
2022-10-12T17:35:24.708Z,17.89
2022-10-12T17:37:26.394Z,17.94
2022-10-12T17:39:30.062Z,17.88
2022-10-12T17:41:31.661Z,17.81
2022-10-12T17:43:33.507Z,17.78
2022-10-12T17:45:35.194Z,17.83
2022-10-12T17:47:36.939Z,17.77
2022-10-12T17:49:38.592Z,17.83
2022-10-12T17:51:41.128Z,17.82
2022-10-12T17:53:43.036Z,17.75
2022-10-12T17:55:48.678Z,17.76
2022-10-12T17:57:51.432Z,17.74
2022-10-12T17:59:53.144Z,17.71
2022-10-12T18:01:55.012Z,17.73
2022-10-12T18:04:00.059Z,17.61
2022-10-12T18:06:06.377Z,17.60
2022-10-12T18:08:08.180Z,17.55
2022-10-12T18:10:10.384Z,17.59
2022-10-12T18:12:12.029Z,17.59
2022-10-12T18:14:13.913Z,17.58
2022-10-12T18:16:18.469Z,17.48
2022-10-12T18:18:20.325Z,17.36
2022-10-12T18:20:22.333Z,17.41
2022-10-12T18:22:23.928Z,17.31
2022-10-12T18:24:25.577Z,17.35
2022-10-12T18:26:28.930Z,17.42
2022-10-12T18:28:30.775Z,17.35
2022-10-12T18:30:32.843Z,17.26
2022-10-12T18:32:34.832Z,17.21
2022-10-12T18:34:40.717Z,17.34
2022-10-12T18:36:42.912Z,17.40
2022-10-12T18:38:45.268Z,17.08
2022-10-12T18:40:50.084Z,17.12
2022-10-12T18:42:51.719Z,17.22
2022-10-12T18:44:53.352Z,17.17
2022-10-12T18:46:54.966Z,17.22
2022-10-12T18:48:56.777Z,17.27
2022-10-12T18:51:16.690Z,17.23
2022-10-12T18:53:19.617Z,17.25
2022-10-12T18:55:21.244Z,17.22
2022-10-12T18:57:24.126Z,17.20
2022-10-12T18:59:28.198Z,17.12
2022-10-12T19:01:31.374Z,17.15
2022-10-12T19:03:32.981Z,17.11
2022-10-12T19:05:34.623Z,16.95
2022-10-12T19:07:36.583Z,17.07
2022-10-12T19:09:38.239Z,17.10
2022-10-12T19:11:40.028Z,17.02
2022-10-12T19:13:42.019Z,17.06
2022-10-12T19:15:43.666Z,17.03
2022-10-12T19:17:45.283Z,16.96
2022-10-12T19:19:46.928Z,16.88
2022-10-12T19:21:50.389Z,16.97
2022-10-12T19:23:52.181Z,16.93
2022-10-12T19:25:54.048Z,16.90
2022-10-12T19:27:56.036Z,16.88
2022-10-12T19:29:57.743Z,16.91
2022-10-12T19:31:59.781Z,16.78
2022-10-12T19:34:04.171Z,16.89
2022-10-12T19:36:08.305Z,16.90
2022-10-12T19:38:09.955Z,16.82
2022-10-12T19:40:17.733Z,16.88
2022-10-12T19:42:19.782Z,16.79
2022-10-12T19:44:21.731Z,16.72
2022-10-12T19:46:24.225Z,16.75
2022-10-12T19:48:25.851Z,16.74
2022-10-12T19:50:35.743Z,16.81
2022-10-12T19:52:37.638Z,16.78
2022-10-12T19:54:39.289Z,16.89
2022-10-12T19:56:41.359Z,16.84
2022-10-12T19:58:45.434Z,16.76
2022-10-12T20:00:47.213Z,16.74
2022-10-12T20:02:49.256Z,16.89
2022-10-12T20:04:54.249Z,16.88
2022-10-12T20:06:55.894Z,16.87
2022-10-12T20:09:03.109Z,16.76
2022-10-12T20:11:05.478Z,16.78
2022-10-12T20:13:25.512Z,16.81
2022-10-12T20:15:27.150Z,16.74
2022-10-12T20:17:28.806Z,16.80
2022-10-12T20:19:30.419Z,16.82
2022-10-12T20:21:32.309Z,16.80
2022-10-12T20:23:37.831Z,16.78
2022-10-12T20:25:46.203Z,16.67
2022-10-12T20:27:47.942Z,16.55
2022-10-12T20:29:49.655Z,16.54
2022-10-12T20:31:51.358Z,16.52
2022-10-12T20:33:54.543Z,16.53
2022-10-12T20:35:56.199Z,16.54
2022-10-12T20:37:57.819Z,16.58
2022-10-12T20:39:59.886Z,16.57
2022-10-12T20:42:01.531Z,16.48
2022-10-12T20:44:04.378Z,16.38
2022-10-12T20:46:07.775Z,16.33
2022-10-12T20:48:09.498Z,16.47
2022-10-12T20:50:12.509Z,16.48
2022-10-12T20:52:14.182Z,16.47
2022-10-12T20:54:18.723Z,16.37
2022-10-12T20:56:20.987Z,16.49
2022-10-12T20:58:27.059Z,16.50
2022-10-12T21:00:29.737Z,16.50
2022-10-12T21:02:33.473Z,16.52
2022-10-12T21:04:38.378Z,16.47
2022-10-12T21:06:42.602Z,16.59
2022-10-12T21:08:44.367Z,16.54
2022-10-12T21:10:48.775Z,16.54
2022-10-12T21:12:50.417Z,16.50
2022-10-12T21:14:52.364Z,16.47
2022-10-12T21:16:54.056Z,16.50
2022-10-12T21:18:56.320Z,16.47
2022-10-12T21:21:01.148Z,16.38
2022-10-12T21:23:02.766Z,16.23
2022-10-12T21:25:04.838Z,16.40
2022-10-12T21:27:06.460Z,16.37
2022-10-12T21:29:19.155Z,16.37
2022-10-12T21:31:21.695Z,16.41
2022-10-12T21:33:23.393Z,16.41
2022-10-12T21:35:25.041Z,16.43
2022-10-12T21:37:29.421Z,16.50
2022-10-12T21:39:31.057Z,16.51
2022-10-12T21:41:32.695Z,16.45
2022-10-12T21:43:35.386Z,16.43
2022-10-12T21:45:37.043Z,16.44
2022-10-12T21:47:38.648Z,16.43
2022-10-12T21:49:43.347Z,16.41
2022-10-12T21:51:45.066Z,16.32
2022-10-12T21:53:47.414Z,16.33
2022-10-12T21:55:49.046Z,16.38
2022-10-12T21:57:52.128Z,16.44
2022-10-12T21:59:53.766Z,16.44
2022-10-12T22:01:56.976Z,16.32
2022-10-12T22:04:01.483Z,16.43
2022-10-12T22:06:04.219Z,16.50
2022-10-12T22:08:07.065Z,16.47
2022-10-12T22:10:11.813Z,16.50
2022-10-12T22:12:13.457Z,16.49
2022-10-12T22:14:18.969Z,16.56
2022-10-12T22:16:21.303Z,16.56
2022-10-12T22:18:25.980Z,16.53
2022-10-12T22:20:28.000Z,16.56
2022-10-12T22:22:32.455Z,16.58
2022-10-12T22:24:34.471Z,16.51
2022-10-12T22:26:40.992Z,16.53
2022-10-12T22:28:43.655Z,16.59
2022-10-12T22:30:46.993Z,16.62
2022-10-12T22:32:48.804Z,16.64
2022-10-12T22:34:52.504Z,16.62
2022-10-12T22:36:54.157Z,16.56
2022-10-12T22:38:55.803Z,16.63
2022-10-12T22:41:03.084Z,16.56
2022-10-12T22:43:04.696Z,16.44
2022-10-12T22:45:06.795Z,16.42
2022-10-12T22:47:08.762Z,16.49
2022-10-12T22:49:14.064Z,16.48
2022-10-12T22:51:21.167Z,16.48
2022-10-12T22:53:24.352Z,16.40
2022-10-12T22:55:26.017Z,16.52
2022-10-12T22:57:29.786Z,16.52
2022-10-12T22:59:31.425Z,16.53
2022-10-12T23:01:33.968Z,16.60
2022-10-12T23:03:37.150Z,16.57
2022-10-12T23:05:38.744Z,16.62
2022-10-12T23:07:40.439Z,16.67
2022-10-12T23:09:44.261Z,16.55
2022-10-12T23:11:45.914Z,16.59
2022-10-12T23:13:48.263Z,16.56
2022-10-12T23:15:49.905Z,16.55
2022-10-12T23:17:51.560Z,16.49
2022-10-12T23:19:53.166Z,16.44
2022-10-12T23:21:54.807Z,16.35
2022-10-12T23:23:58.104Z,16.34
2022-10-12T23:26:13.956Z,16.42
2022-10-12T23:28:15.650Z,16.47
2022-10-12T23:30:17.674Z,16.54
2022-10-12T23:32:19.632Z,16.55
2022-10-12T23:34:21.554Z,16.51
2022-10-12T23:36:23.311Z,16.52
2022-10-12T23:38:25.980Z,16.48
2022-10-12T23:40:27.838Z,16.53
2022-10-12T23:42:29.540Z,16.51
2022-10-12T23:44:31.137Z,16.45
2022-10-12T23:46:33.030Z,16.37
2022-10-12T23:48:34.754Z,16.42
2022-10-12T23:50:37.616Z,16.45
2022-10-12T23:52:39.253Z,16.47
2022-10-12T23:54:40.932Z,16.35
2022-10-12T23:56:42.539Z,16.41
2022-10-12T23:58:44.151Z,16.45
